Time,TemperatureF,DewpointF,PressureIn,WindDirection,WindDirectionDegrees,WindSpeedMPH,WindSpeedGustMPH,Humidity,HourlyPrecipIn,Conditions,Clouds,dailyrainin,SoftwareType,DateUTC
2013-03-04 00:01:00,20.0,14.0,29.92,NNW,330,31.0,43.0,76,0.00,,,0.00,,2013-03-04 05:01:00,
2013-03-04 00:11:00,20.0,14.0,29.92,NNW,330,31.0,43.0,76,0.00,,,0.00,,2013-03-04 05:11:00,
2013-03-04 00:22:00,19.0,13.0,29.92,NW,323,30.0,42.0,76,0.00,,,0.00,,2013-03-04 05:22:00,
2013-03-04 00:32:00,19.0,13.0,29.92,North,349,37.0,44.0,76,0.00,,,0.00,,2013-03-04 05:32:00,
2013-03-04 00:42:00,19.0,13.0,29.92,North,349,37.0,44.0,76,0.00,,,0.00,,2013-03-04 05:42:00,
2013-03-04 00:52:00,19.0,13.0,29.92,North,354,28.0,39.0,76,0.00,,,0.00,,2013-03-04 05:52:00,
2013-03-04 01:02:00,19.0,13.0,29.93,WNW,300,25.0,34.0,76,0.00,,,0.00,,2013-03-04 06:02:00,
2013-03-04 01:11:00,19.0,13.0,29.93,WNW,300,25.0,34.0,76,0.00,,,0.00,,2013-03-04 06:11:00,
2013-03-04 01:22:00,19.0,12.0,29.93,NNW,342,30.0,38.0,75,0.00,,,0.00,,2013-03-04 06:22:00,
2013-03-04 01:32:00,19.0,13.0,29.94,North,4,18.0,38.0,76,0.00,,,0.00,,2013-03-04 06:32:00,
2013-03-04 01:42:00,19.0,13.0,29.94,North,4,18.0,38.0,76,0.00,,,0.00,,2013-03-04 06:42:00,
2013-03-04 01:52:00,19.0,13.0,29.95,NW,326,18.0,38.0,76,0.00,,,0.00,,2013-03-04 06:52:00,
2013-03-04 02:02:00,19.0,13.0,29.95,NNW,338,25.0,32.0,76,0.00,,,0.00,,2013-03-04 07:02:00,
2013-03-04 02:11:00,19.0,13.0,29.95,NNW,338,25.0,32.0,76,0.00,,,0.00,,2013-03-04 07:11:00,
2013-03-04 02:22:00,19.0,13.0,29.95,NW,319,21.0,36.0,76,0.00,,,0.00,,2013-03-04 07:22:00,
2013-03-04 02:32:00,19.0,13.0,29.95,NW,318,24.0,32.0,77,0.00,,,0.00,,2013-03-04 07:32:00,
2013-03-04 02:42:00,19.0,13.0,29.95,NW,318,24.0,32.0,77,0.00,,,0.00,,2013-03-04 07:42:00,
2013-03-04 02:52:00,19.0,13.0,29.95,NNW,327,22.0,32.0,77,0.00,,,0.00,,2013-03-04 07:52:00,
2013-03-04 03:02:00,19.0,13.0,29.96,NNW,330,25.0,38.0,76,0.00,,,0.00,,2013-03-04 08:02:00,
2013-03-04 03:12:00,19.0,13.0,29.96,NNW,330,25.0,38.0,76,0.00,,,0.00,,2013-03-04 08:12:00,
2013-03-04 03:22:00,19.0,13.0,29.96,NNW,347,24.0,37.0,76,0.00,,,0.00,,2013-03-04 08:22:00,
2013-03-04 03:32:00,19.0,13.0,29.96,NNW,340,25.0,34.0,77,0.00,,,0.00,,2013-03-04 08:32:00,
2013-03-04 03:42:00,19.0,13.0,29.96,NNW,340,25.0,34.0,77,0.00,,,0.00,,2013-03-04 08:42:00,
2013-03-04 03:52:00,19.0,13.0,29.96,NNW,347,24.0,38.0,78,0.00,,,0.00,,2013-03-04 08:52:00,
2013-03-04 04:02:00,19.0,13.0,29.96,NNW,336,30.0,39.0,78,0.00,,,0.00,,2013-03-04 09:02:00,
2013-03-04 04:11:00,19.0,13.0,29.96,NNW,336,30.0,39.0,78,0.00,,,0.00,,2013-03-04 09:11:00,
2013-03-04 04:22:00,19.0,13.0,29.97,NNW,338,28.0,42.0,78,0.00,,,0.00,,2013-03-04 09:22:00,
2013-03-04 04:32:00,19.0,13.0,29.96,NNW,335,28.0,38.0,78,0.00,,,0.00,,2013-03-04 09:32:00,
2013-03-04 04:42:00,19.0,13.0,29.96,NNW,335,28.0,38.0,78,0.00,,,0.00,,2013-03-04 09:42:00,
2013-03-04 04:52:00,20.0,15.0,29.97,NNW,340,27.0,37.0,79,0.00,,,0.00,,2013-03-04 09:52:00,
2013-03-04 05:01:00,20.0,15.0,29.98,NNW,331,27.0,38.0,79,0.00,,,0.00,,2013-03-04 10:01:00,
2013-03-04 05:12:00,20.0,15.0,29.98,NNW,331,27.0,38.0,79,0.00,,,0.00,,2013-03-04 10:12:00,
2013-03-04 05:22:00,20.0,15.0,29.98,NNW,346,28.0,38.0,79,0.00,,,0.00,,2013-03-04 10:22:00,
2013-03-04 05:32:00,20.0,15.0,29.99,NNW,332,28.0,36.0,79,0.00,,,0.00,,2013-03-04 10:32:00,
2013-03-04 05:42:00,20.0,15.0,29.99,NNW,332,28.0,36.0,79,0.00,,,0.00,,2013-03-04 10:42:00,
2013-03-04 05:52:00,20.0,15.0,30.00,NNW,345,26.0,37.0,80,0.00,,,0.00,,2013-03-04 10:52:00,
2013-03-04 06:02:00,20.0,15.0,30.00,NNW,335,23.0,34.0,80,0.00,,,0.00,,2013-03-04 11:02:00,
2013-03-04 06:11:00,20.0,15.0,30.00,NNW,335,23.0,34.0,80,0.00,,,0.00,,2013-03-04 11:11:00,
2013-03-04 06:22:00,20.0,15.0,30.01,NW,319,25.0,37.0,80,0.00,,,0.00,,2013-03-04 11:22:00,
2013-03-04 06:32:00,20.0,15.0,30.01,NW,319,24.0,34.0,80,0.00,,,0.00,,2013-03-04 11:32:00,
2013-03-04 06:42:00,20.0,15.0,30.01,NW,319,24.0,34.0,80,0.00,,,0.00,,2013-03-04 11:42:00,
2013-03-04 06:52:00,20.0,15.0,30.02,NW,308,24.0,30.0,80,0.00,,,0.00,,2013-03-04 11:52:00,
2013-03-04 07:02:00,20.0,15.0,30.02,NW,318,24.0,31.0,80,0.00,,,0.00,,2013-03-04 12:02:00,
2013-03-04 07:11:00,20.0,15.0,30.02,NW,318,24.0,31.0,80,0.00,,,0.00,,2013-03-04 12:11:00,
2013-03-04 07:22:00,20.0,15.0,30.03,NNW,331,25.0,33.0,80,0.00,,,0.00,,2013-03-04 12:22:00,
2013-03-04 07:32:00,20.0,15.0,30.03,NNW,335,24.0,33.0,80,0.00,,,0.00,,2013-03-04 12:32:00,
2013-03-04 07:42:00,20.0,15.0,30.03,NNW,335,24.0,33.0,80,0.00,,,0.00,,2013-03-04 12:42:00,
2013-03-04 07:53:00,20.0,15.0,30.03,NW,325,23.0,33.0,81,0.00,,,0.00,,2013-03-04 12:53:00,
2013-03-04 08:02:00,20.0,15.0,30.04,North,353,25.0,36.0,80,0.00,,,0.00,,2013-03-04 13:02:00,
2013-03-04 08:11:00,20.0,15.0,30.04,North,353,25.0,36.0,80,0.00,,,0.00,,2013-03-04 13:11:00,
2013-03-04 08:22:00,20.0,15.0,30.04,NNW,331,23.0,34.0,79,0.00,,,0.00,,2013-03-04 13:22:00,
2013-03-04 08:32:00,21.0,15.0,30.04,North,8,23.0,32.0,78,0.00,,,0.00,,2013-03-04 13:32:00,
2013-03-04 08:42:00,21.0,15.0,30.04,North,8,23.0,32.0,78,0.00,,,0.00,,2013-03-04 13:42:00,
2013-03-04 08:52:00,21.0,14.0,30.05,North,352,19.0,30.0,74,0.00,,,0.00,,2013-03-04 13:52:00,
2013-03-04 09:01:00,22.0,14.0,30.06,NNW,339,16.0,27.0,71,0.00,,,0.00,,2013-03-04 14:01:00,
2013-03-04 09:12:00,22.0,14.0,30.06,NNW,339,16.0,27.0,71,0.00,,,0.00,,2013-03-04 14:12:00,
2013-03-04 09:22:00,23.0,14.0,30.07,North,357,13.0,28.0,69,0.00,,,0.00,,2013-03-04 14:22:00,
2013-03-04 09:32:00,23.0,13.0,30.08,NW,304,13.0,23.0,66,0.00,,,0.00,,2013-03-04 14:32:00,
2013-03-04 09:42:00,23.0,13.0,30.08,NW,304,13.0,23.0,66,0.00,,,0.00,,2013-03-04 14:42:00,
2013-03-04 09:52:00,24.0,13.0,30.09,NW,325,16.0,24.0,63,0.00,,,0.00,,2013-03-04 14:52:00,
2013-03-04 10:02:00,24.0,13.0,30.09,NNW,342,16.0,26.0,61,0.00,,,0.00,,2013-03-04 15:02:00,
2013-03-04 10:11:00,24.0,13.0,30.09,NNW,342,16.0,26.0,61,0.00,,,0.00,,2013-03-04 15:11:00,
2013-03-04 10:22:00,25.0,14.0,30.09,NNW,339,10.0,15.0,62,0.00,,,0.00,,2013-03-04 15:22:00,
2013-03-04 10:32:00,26.0,14.0,30.09,NNW,338,11.0,17.0,59,0.00,,,0.00,,2013-03-04 15:32:00,
2013-03-04 10:42:00,26.0,14.0,30.09,NNW,338,11.0,17.0,59,0.00,,,0.00,,2013-03-04 15:42:00,
2013-03-04 10:52:00,27.0,14.0,30.09,NNW,335,10.0,15.0,58,0.00,,,0.00,,2013-03-04 15:52:00,
2013-03-04 11:03:00,28.0,14.0,30.10,North,6,3.0,14.0,55,0.00,,,0.00,,2013-03-04 16:03:00,
2013-03-04 11:11:00,28.0,14.0,30.10,North,6,3.0,14.0,55,0.00,,,0.00,,2013-03-04 16:11:00,
2013-03-04 11:21:00,29.0,13.0,30.11,NNW,338,5.0,10.0,51,0.00,,,0.00,,2013-03-04 16:21:00,
2013-03-04 11:32:00,30.0,14.0,30.10,WNW,283,5.0,9.0,51,0.00,,,0.00,,2013-03-04 16:32:00,
2013-03-04 11:42:00,30.0,14.0,30.10,WNW,283,5.0,9.0,51,0.00,,,0.00,,2013-03-04 16:42:00,
2013-03-04 11:52:00,32.0,14.0,30.10,East,101,3.0,7.0,47,0.00,,,0.00,,2013-03-04 16:52:00,
2013-03-04 12:02:00,34.0,15.0,30.10,NW,319,4.0,7.0,46,0.00,,,0.00,,2013-03-04 17:02:00,
2013-03-04 12:11:00,34.0,15.0,30.10,NW,319,4.0,7.0,46,0.00,,,0.00,,2013-03-04 17:11:00,
2013-03-04 12:22:00,34.0,13.0,30.10,North,349,4.0,8.0,41,0.00,,,0.00,,2013-03-04 17:22:00,
2013-03-04 12:32:00,34.0,13.0,30.10,NE,40,3.0,8.0,41,0.00,,,0.00,,2013-03-04 17:32:00,
2013-03-04 12:42:00,34.0,13.0,30.10,NE,40,3.0,8.0,41,0.00,,,0.00,,2013-03-04 17:42:00,
2013-03-04 12:52:00,36.0,16.0,30.10,West,259,3.0,8.0,43,0.00,,,0.00,,2013-03-04 17:52:00,
2013-03-04 13:02:00,36.0,15.0,30.09,SW,224,5.0,10.0,42,0.00,,,0.00,,2013-03-04 18:02:00,
2013-03-04 13:11:00,36.0,15.0,30.09,SW,224,5.0,10.0,42,0.00,,,0.00,,2013-03-04 18:11:00,
2013-03-04 13:22:00,37.0,13.0,30.09,WNW,295,5.0,10.0,37,0.00,,,0.00,,2013-03-04 18:22:00,
2013-03-04 13:32:00,37.0,13.0,30.09,NNW,340,4.0,7.0,37,0.00,,,0.00,,2013-03-04 18:32:00,
2013-03-04 13:42:00,37.0,13.0,30.09,NNW,340,4.0,7.0,37,0.00,,,0.00,,2013-03-04 18:42:00,
2013-03-04 13:52:00,38.0,14.0,30.07,NW,307,0.0,7.0,37,0.00,,,0.00,,2013-03-04 18:52:00,
2013-03-04 14:02:00,40.0,15.0,30.07,East,79,1.0,4.0,35,0.00,,,0.00,,2013-03-04 19:02:00,
2013-03-04 14:12:00,40.0,15.0,30.07,East,79,1.0,4.0,35,0.00,,,0.00,,2013-03-04 19:12:00,
2013-03-04 14:22:00,40.0,14.0,30.06,SSE,166,2.0,9.0,34,0.00,,,0.00,,2013-03-04 19:22:00,
2013-03-04 14:32:00,41.0,14.0,30.06,NW,307,1.0,8.0,33,0.00,,,0.00,,2013-03-04 19:32:00,
2013-03-04 14:42:00,41.0,14.0,30.06,NW,307,1.0,8.0,33,0.00,,,0.00,,2013-03-04 19:42:00,
2013-03-04 14:52:00,41.0,14.0,30.06,North,351,5.0,9.0,33,0.00,,,0.00,,2013-03-04 19:52:00,
2013-03-04 15:02:00,41.0,14.0,30.06,NW,318,6.0,11.0,33,0.00,,,0.00,,2013-03-04 20:02:00,
2013-03-04 15:12:00,41.0,14.0,30.06,NW,318,6.0,11.0,33,0.00,,,0.00,,2013-03-04 20:12:00,
2013-03-04 15:22:00,40.0,15.0,30.06,NW,315,8.0,13.0,35,0.00,,,0.00,,2013-03-04 20:22:00,
2013-03-04 15:32:00,41.0,15.0,30.06,West,264,13.0,19.0,35,0.00,,,0.00,,2013-03-04 20:32:00,
2013-03-04 15:42:00,41.0,15.0,30.06,West,264,13.0,19.0,35,0.00,,,0.00,,2013-03-04 20:42:00,
2013-03-04 15:53:00,41.0,15.0,30.05,West,281,12.0,17.0,35,0.00,,,0.00,,2013-03-04 20:53:00,
2013-03-04 16:02:00,42.0,16.0,30.05,West,274,11.0,18.0,34,0.00,,,0.00,,2013-03-04 21:02:00,
2013-03-04 16:12:00,42.0,16.0,30.05,West,274,11.0,18.0,34,0.00,,,0.00,,2013-03-04 21:12:00,
2013-03-04 16:22:00,41.0,15.0,30.05,WSW,245,12.0,20.0,34,0.00,,,0.00,,2013-03-04 21:22:00,
2013-03-04 16:32:00,42.0,16.0,30.05,WSW,248,13.0,19.0,34,0.00,,,0.00,,2013-03-04 21:32:00,
2013-03-04 16:42:00,42.0,16.0,30.05,WSW,248,13.0,19.0,34,0.00,,,0.00,,2013-03-04 21:42:00,
2013-03-04 16:53:00,42.0,16.0,30.05,West,281,12.0,17.0,34,0.00,,,0.00,,2013-03-04 21:53:00,
2013-03-04 17:02:00,42.0,16.0,30.05,SW,236,15.0,19.0,34,0.00,,,0.00,,2013-03-04 22:02:00,
2013-03-04 17:12:00,42.0,16.0,30.05,SW,236,15.0,19.0,34,0.00,,,0.00,,2013-03-04 22:12:00,
2013-03-04 17:22:00,42.0,16.0,30.06,WSW,255,16.0,20.0,35,0.00,,,0.00,,2013-03-04 22:22:00,
2013-03-04 17:32:00,42.0,16.0,30.06,WSW,248,13.0,18.0,35,0.00,,,0.00,,2013-03-04 22:32:00,
2013-03-04 17:42:00,42.0,16.0,30.06,WSW,248,13.0,18.0,35,0.00,,,0.00,,2013-03-04 22:42:00,
2013-03-04 17:52:00,41.0,16.0,30.06,SW,236,16.0,19.0,36,0.00,,,0.00,,2013-03-04 22:52:00,
2013-03-04 18:02:00,41.0,17.0,30.06,SW,215,17.0,20.0,37,0.00,,,0.00,,2013-03-04 23:02:00,
2013-03-04 18:11:00,41.0,17.0,30.06,SW,215,17.0,20.0,37,0.00,,,0.00,,2013-03-04 23:11:00,
2013-03-04 18:22:00,41.0,17.0,30.06,WSW,238,17.0,20.0,38,0.00,,,0.00,,2013-03-04 23:22:00,
2013-03-04 18:32:00,40.0,16.0,30.06,SW,236,16.0,19.0,38,0.00,,,0.00,,2013-03-04 23:32:00,
2013-03-04 18:42:00,40.0,16.0,30.06,SW,236,16.0,19.0,38,0.00,,,0.00,,2013-03-04 23:42:00,
2013-03-04 18:52:00,40.0,18.0,30.06,WSW,252,20.0,22.0,40,0.00,,,0.00,,2013-03-04 23:52:00,
2013-03-04 19:02:00,40.0,18.0,30.06,WSW,253,19.0,23.0,41,0.00,,,0.00,,2013-03-05 00:02:00,
2013-03-04 19:12:00,40.0,18.0,30.06,WSW,253,19.0,23.0,41,0.00,,,0.00,,2013-03-05 00:12:00,
2013-03-04 19:22:00,40.0,19.0,30.06,WSW,255,17.0,21.0,42,0.00,,,0.00,,2013-03-05 00:22:00,
2013-03-04 19:32:00,40.0,19.0,30.06,WSW,255,22.0,25.0,42,0.00,,,0.00,,2013-03-05 00:32:00,
2013-03-04 19:42:00,40.0,19.0,30.06,WSW,255,22.0,25.0,42,0.00,,,0.00,,2013-03-05 00:42:00,
2013-03-04 19:52:00,41.0,21.0,30.06,WSW,239,23.0,29.0,44,0.00,,,0.00,,2013-03-05 00:52:00,
2013-03-04 20:02:00,40.0,20.0,30.07,WSW,257,23.0,27.0,44,0.00,,,0.00,,2013-03-05 01:02:00,
2013-03-04 20:12:00,40.0,20.0,30.07,WSW,257,23.0,27.0,44,0.00,,,0.00,,2013-03-05 01:12:00,
2013-03-04 20:22:00,41.0,22.0,30.07,West,264,26.0,31.0,46,0.00,,,0.00,,2013-03-05 01:22:00,
2013-03-04 20:32:00,41.0,23.0,30.06,SW,226,25.0,31.0,49,0.00,,,0.00,,2013-03-05 01:32:00,
2013-03-04 20:42:00,41.0,23.0,30.06,SW,226,25.0,31.0,49,0.00,,,0.00,,2013-03-05 01:42:00,
2013-03-04 20:52:00,41.0,22.0,30.07,WSW,240,23.0,30.0,47,0.00,,,0.00,,2013-03-05 01:52:00,
2013-03-04 21:01:00,41.0,24.0,30.06,WSW,242,26.0,31.0,50,0.00,,,0.00,,2013-03-05 02:01:00,
2013-03-04 21:12:00,41.0,24.0,30.06,WSW,242,26.0,31.0,50,0.00,,,0.00,,2013-03-05 02:12:00,
2013-03-04 21:22:00,41.0,24.0,30.06,West,262,25.0,30.0,51,0.00,,,0.00,,2013-03-05 02:22:00,
2013-03-04 21:32:00,41.0,24.0,30.06,SW,235,27.0,29.0,51,0.00,,,0.00,,2013-03-05 02:32:00,
2013-03-04 21:42:00,41.0,24.0,30.06,SW,235,27.0,29.0,51,0.00,,,0.00,,2013-03-05 02:42:00,
2013-03-04 21:53:00,41.0,24.0,30.07,WSW,240,24.0,28.0,51,0.00,,,0.00,,2013-03-05 02:53:00,
2013-03-04 22:02:00,42.0,27.0,30.07,SW,231,31.0,32.0,54,0.00,,,0.00,,2013-03-05 03:02:00,
2013-03-04 22:12:00,42.0,27.0,30.07,SW,231,31.0,32.0,54,0.00,,,0.00,,2013-03-05 03:12:00,
2013-03-04 22:22:00,41.0,23.0,30.08,SW,233,26.0,27.0,49,0.00,,,0.00,,2013-03-05 03:22:00,
2013-03-04 22:32:00,41.0,23.0,30.08,WSW,238,25.0,27.0,49,0.00,,,0.00,,2013-03-05 03:32:00,
2013-03-04 22:42:00,41.0,23.0,30.08,WSW,238,25.0,27.0,49,0.00,,,0.00,,2013-03-05 03:42:00,
2013-03-04 22:52:00,41.0,25.0,30.08,SW,227,27.0,30.0,52,0.00,,,0.00,,2013-03-05 03:52:00,
2013-03-04 23:02:00,41.0,25.0,30.07,SW,231,28.0,30.0,52,0.00,,,0.00,,2013-03-05 04:02:00,
2013-03-04 23:12:00,41.0,25.0,30.07,SW,231,28.0,30.0,52,0.00,,,0.00,,2013-03-05 04:12:00,
2013-03-04 23:22:00,41.0,24.0,30.07,WSW,242,23.0,30.0,51,0.00,,,0.00,,2013-03-05 04:22:00,
2013-03-04 23:32:00,41.0,24.0,30.07,WSW,240,22.0,31.0,51,0.00,,,0.00,,2013-03-05 04:32:00,
2013-03-04 23:42:00,41.0,24.0,30.07,WSW,240,22.0,31.0,51,0.00,,,0.00,,2013-03-05 04:42:00,
2013-03-04 23:52:00,40.0,23.0,30.06,SW,236,28.0,35.0,51,0.00,,,0.00,,2013-03-05 04:52:00,